createdAt,value
2018-04-07T00:00:20.379Z,56.77
2018-04-07T00:01:21.755Z,56.49
2018-04-07T00:02:23.137Z,56.77
2018-04-07T00:03:24.499Z,56.87
2018-04-07T00:04:25.884Z,57.24
2018-04-07T00:05:27.267Z,57.24
2018-04-07T00:06:28.656Z,57.15
2018-04-07T00:07:30.036Z,57.24
2018-04-07T00:08:31.404Z,57.43
2018-04-07T00:09:32.801Z,57.15
2018-04-07T00:10:34.184Z,57.62
2018-04-07T00:11:35.569Z,57.53
2018-04-07T00:12:36.951Z,57.62
2018-04-07T00:13:38.328Z,57.62
2018-04-07T00:14:39.714Z,57.62
2018-04-07T00:15:41.082Z,57.72
2018-04-07T00:16:42.452Z,58.29
2018-04-07T00:17:43.846Z,58.20
2018-04-07T00:18:45.219Z,58.29
2018-04-07T00:19:46.613Z,58.00
2018-04-07T00:20:47.990Z,58.29
2018-04-07T00:21:49.368Z,58.48
2018-04-07T00:22:50.747Z,58.58
2018-04-07T00:23:52.122Z,58.86
2018-04-07T00:24:53.502Z,58.67
2018-04-07T00:25:54.872Z,58.67
2018-04-07T00:26:56.270Z,58.67
2018-04-07T00:27:57.645Z,59.14
2018-04-07T00:28:59.028Z,59.14
2018-04-07T00:30:00.401Z,59.05
2018-04-07T00:31:01.777Z,58.95
2018-04-07T00:32:03.162Z,58.73
2018-04-07T00:33:04.531Z,59.30
2018-04-07T00:34:05.913Z,59.52
2018-04-07T00:35:07.290Z,59.59
2018-04-07T00:36:08.666Z,59.43
2018-04-07T00:37:10.042Z,59.21
2018-04-07T00:38:11.420Z,59.71
2018-04-07T00:39:12.794Z,59.49
2018-04-07T00:40:14.171Z,59.88
2018-04-07T00:41:15.546Z,59.68
2018-04-07T00:42:16.920Z,60.06
2018-04-07T00:43:18.294Z,59.97
2018-04-07T00:44:20.175Z,60.25
2018-04-07T00:45:21.552Z,60.06
2018-04-07T00:46:22.936Z,60.53
2018-04-07T00:47:24.324Z,60.44
2018-04-07T00:48:25.705Z,60.44
2018-04-07T00:49:27.086Z,60.44
2018-04-07T00:50:28.459Z,60.53
2018-04-07T00:51:29.843Z,60.53
2018-04-07T00:52:31.217Z,60.82
2018-04-07T00:53:32.598Z,60.35
2018-04-07T00:54:33.972Z,60.53
2018-04-07T00:55:35.350Z,60.44
2018-04-07T00:56:36.724Z,60.53
2018-04-07T00:57:38.103Z,60.73
2018-04-07T00:58:39.499Z,60.82
2018-04-07T00:59:40.877Z,60.92
2018-04-07T01:00:42.249Z,61.20
2018-04-07T01:01:43.629Z,61.30
2018-04-07T01:02:45.003Z,60.82
2018-04-07T01:03:46.378Z,61.11
2018-04-07T01:04:47.761Z,61.49
2018-04-07T01:05:49.126Z,61.49
2018-04-07T01:06:50.491Z,61.39
2018-04-07T01:07:51.877Z,61.49
2018-04-07T01:08:53.251Z,61.77
2018-04-07T01:09:54.631Z,61.30
2018-04-07T01:10:56.009Z,61.39
2018-04-07T01:11:57.384Z,61.30
2018-04-07T01:12:58.765Z,61.87
2018-04-07T01:14:00.159Z,61.87
2018-04-07T01:15:01.531Z,61.77
2018-04-07T01:16:02.908Z,61.87
2018-04-07T01:17:04.282Z,61.68
2018-04-07T01:18:05.654Z,62.34
2018-04-07T01:19:07.038Z,61.87
2018-04-07T01:20:08.411Z,61.77
2018-04-07T01:21:09.783Z,61.96
2018-04-07T01:22:11.158Z,62.43
2018-04-07T01:23:12.530Z,62.15
2018-04-07T01:24:13.907Z,62.24
2018-04-07T01:25:15.279Z,62.43
2018-04-07T01:26:16.655Z,62.62
2018-04-07T01:27:18.024Z,62.34
2018-04-07T01:28:19.404Z,62.34
2018-04-07T01:29:20.780Z,62.15
2018-04-07T01:30:22.161Z,62.53
2018-04-07T01:31:23.539Z,62.43
2018-04-07T01:32:24.918Z,62.24
2018-04-07T01:33:26.295Z,62.34
2018-04-07T01:34:27.672Z,62.53
2018-04-07T01:35:29.050Z,62.82
2018-04-07T01:36:30.424Z,62.91
2018-04-07T01:37:31.804Z,63.01
2018-04-07T01:38:33.173Z,62.72
2018-04-07T01:39:34.550Z,62.82
2018-04-07T01:40:35.926Z,62.62
2018-04-07T01:41:37.306Z,62.91
2018-04-07T01:42:38.680Z,63.20
2018-04-07T01:43:40.056Z,63.17
2018-04-07T01:44:41.441Z,63.17
2018-04-07T01:45:42.824Z,63.35
2018-04-07T01:46:44.191Z,63.54
2018-04-07T01:47:45.566Z,63.54
2018-04-07T01:48:46.944Z,63.64
2018-04-07T01:49:48.318Z,63.54
2018-04-07T01:50:49.702Z,63.45
2018-04-07T01:51:51.074Z,63.82
2018-04-07T01:52:52.451Z,63.64
2018-04-07T01:53:53.828Z,63.54
2018-04-07T01:54:55.213Z,63.73
2018-04-07T01:55:56.581Z,63.54
2018-04-07T01:56:57.953Z,63.45
2018-04-07T01:57:59.328Z,63.54
2018-04-07T01:59:00.706Z,63.45
2018-04-07T02:00:02.078Z,63.73
2018-04-07T02:01:03.451Z,63.57
2018-04-07T02:02:04.824Z,63.54
2018-04-07T02:03:06.205Z,63.45
2018-04-07T02:04:07.575Z,63.54
2018-04-07T02:05:08.951Z,63.54
2018-04-07T02:06:10.328Z,63.26
2018-04-07T02:07:11.705Z,63.17
2018-04-07T02:08:13.076Z,63.54
2018-04-07T02:09:14.454Z,63.35
2018-04-07T02:10:15.834Z,63.10
2018-04-07T02:11:17.208Z,62.72
2018-04-07T02:12:18.594Z,62.62
2018-04-07T02:13:19.970Z,62.82
2018-04-07T02:14:21.348Z,62.82
2018-04-07T02:15:22.720Z,62.82
2018-04-07T02:16:24.100Z,62.72
2018-04-07T02:17:25.475Z,62.72
2018-04-07T02:18:26.850Z,62.72
2018-04-07T02:19:28.231Z,63.10
2018-04-07T02:20:29.622Z,63.20
2018-04-07T02:21:30.999Z,63.20
2018-04-07T02:22:32.382Z,62.62
2018-04-07T02:23:33.757Z,62.62
2018-04-07T02:24:35.135Z,62.53
2018-04-07T02:25:36.509Z,63.01
2018-04-07T02:26:37.887Z,62.05
2018-04-07T02:27:39.260Z,62.53
2018-04-07T02:28:40.639Z,62.53
2018-04-07T02:29:42.011Z,62.43
2018-04-07T02:30:43.389Z,62.43
2018-04-07T02:31:44.776Z,63.01
2018-04-07T02:32:46.148Z,62.53
2018-04-07T02:33:47.525Z,62.59
2018-04-07T02:34:48.906Z,63.01
2018-04-07T02:35:50.283Z,62.43
2018-04-07T02:36:51.647Z,62.05
2018-04-07T02:37:53.742Z,62.24
2018-04-07T02:38:55.122Z,62.24
2018-04-07T02:39:56.489Z,62.53
2018-04-07T02:40:57.861Z,62.53
2018-04-07T02:41:59.248Z,62.43
2018-04-07T02:43:00.618Z,62.15
2018-04-07T02:44:01.997Z,62.43
2018-04-07T02:45:03.369Z,62.34
2018-04-07T02:46:04.744Z,61.87
2018-04-07T02:47:06.118Z,62.05
2018-04-07T02:48:07.496Z,62.24
2018-04-07T02:49:08.876Z,61.68
2018-04-07T02:50:10.259Z,61.77
2018-04-07T02:51:11.627Z,61.87
2018-04-07T02:52:13.003Z,61.87
2018-04-07T02:53:14.374Z,61.68
2018-04-07T02:54:15.749Z,61.58
2018-04-07T02:55:17.129Z,61.87
2018-04-07T02:56:18.495Z,61.58
2018-04-07T02:57:19.876Z,61.49
2018-04-07T02:58:21.246Z,61.49
2018-04-07T02:59:22.621Z,61.49
2018-04-07T03:00:24.000Z,61.20
2018-04-07T03:01:25.387Z,61.20
2018-04-07T03:02:26.748Z,61.20
2018-04-07T03:03:28.123Z,61.39
2018-04-07T03:04:30.219Z,61.20
2018-04-07T03:05:31.602Z,61.30
2018-04-07T03:06:32.975Z,61.20
2018-04-07T03:07:34.349Z,61.49
2018-04-07T03:08:35.728Z,61.49
2018-04-07T03:09:37.904Z,61.11
2018-04-07T03:10:39.284Z,60.92
2018-04-07T03:11:40.659Z,61.30
2018-04-07T03:12:42.036Z,61.20
2018-04-07T03:13:43.414Z,61.11
2018-04-07T03:14:44.785Z,60.82
2018-04-07T03:15:46.162Z,61.30
2018-04-07T03:16:47.541Z,61.11
2018-04-07T03:17:48.922Z,60.92
2018-04-07T03:18:50.280Z,60.92
2018-04-07T03:19:51.660Z,61.20
2018-04-07T03:20:53.032Z,61.11
2018-04-07T03:21:54.440Z,60.82
2018-04-07T03:22:55.811Z,60.63
2018-04-07T03:23:57.965Z,61.20
2018-04-07T03:24:59.348Z,61.20
2018-04-07T03:26:00.729Z,61.20
2018-04-07T03:27:02.111Z,61.11
2018-04-07T03:28:03.500Z,61.20
2018-04-07T03:29:04.874Z,61.01
2018-04-07T03:30:06.246Z,60.53
2018-04-07T03:31:07.620Z,60.73
2018-04-07T03:32:09.002Z,60.35
2018-04-07T03:33:10.376Z,60.53
2018-04-07T03:34:11.753Z,60.82
2018-04-07T03:35:13.124Z,60.92
2018-04-07T03:36:14.494Z,60.35
2018-04-07T03:37:15.870Z,60.44
2018-04-07T03:38:17.250Z,60.44
2018-04-07T03:39:18.626Z,60.16
2018-04-07T03:40:20.008Z,59.88
2018-04-07T03:41:21.388Z,59.88
2018-04-07T03:42:22.760Z,59.88
2018-04-07T03:43:24.140Z,59.97
2018-04-07T03:44:25.530Z,59.59
2018-04-07T03:45:26.891Z,59.11
2018-04-07T03:46:28.264Z,59.49
2018-04-07T03:47:29.639Z,59.49
2018-04-07T03:48:30.971Z,59.52
2018-04-07T03:49:32.356Z,58.73
2018-04-07T03:50:33.736Z,59.05
2018-04-07T03:51:35.115Z,58.95
2018-04-07T03:52:36.493Z,59.11
2018-04-07T03:53:37.861Z,59.05
2018-04-07T03:54:39.267Z,58.76
2018-04-07T03:55:40.611Z,58.95
2018-04-07T03:56:41.995Z,59.24
2018-04-07T03:57:43.381Z,59.14
2018-04-07T03:58:44.746Z,58.67
2018-04-07T03:59:46.921Z,58.76
2018-04-07T04:00:48.310Z,58.58
2018-04-07T04:01:49.684Z,58.10
2018-04-07T04:02:51.066Z,58.67
2018-04-07T04:03:53.086Z,58.58
2018-04-07T04:04:54.464Z,58.58
2018-04-07T04:05:55.845Z,58.67
2018-04-07T04:06:57.216Z,58.67
2018-04-07T04:07:58.598Z,58.39
2018-04-07T04:08:59.980Z,58.39
2018-04-07T04:10:01.353Z,58.48
2018-04-07T04:11:02.738Z,58.29
2018-04-07T04:12:04.108Z,58.39
2018-04-07T04:13:05.492Z,58.29
2018-04-07T04:14:06.869Z,58.00
2018-04-07T04:15:08.239Z,57.62
2018-04-07T04:16:09.621Z,57.62
2018-04-07T04:17:10.991Z,57.24
2018-04-07T04:18:12.369Z,57.34
2018-04-07T04:19:13.745Z,57.15
2018-04-07T04:20:15.138Z,57.24
2018-04-07T04:21:16.512Z,57.34
2018-04-07T04:22:17.892Z,57.06
2018-04-07T04:23:19.278Z,57.24
2018-04-07T04:24:20.641Z,57.24
2018-04-07T04:25:22.017Z,57.15
2018-04-07T04:26:23.398Z,57.24
2018-04-07T04:27:24.773Z,57.34
2018-04-07T04:28:26.148Z,57.34
2018-04-07T04:29:27.535Z,57.34
2018-04-07T04:30:28.915Z,57.81
2018-04-07T04:31:30.289Z,57.53
2018-04-07T04:32:31.670Z,57.62
2018-04-07T04:33:33.057Z,57.91
2018-04-07T04:34:34.437Z,58.20
2018-04-07T04:35:35.806Z,58.00
2018-04-07T04:36:37.188Z,57.91
2018-04-07T04:37:38.569Z,58.39
2018-04-07T04:38:39.948Z,58.20
2018-04-07T04:39:41.334Z,58.76
2018-04-07T04:40:42.717Z,58.58
2018-04-07T04:41:44.100Z,58.67
2018-04-07T04:42:45.481Z,58.58
2018-04-07T04:43:46.860Z,58.48
2018-04-07T04:44:48.243Z,58.58
2018-04-07T04:45:49.623Z,59.24
2018-04-07T04:46:51.004Z,59.24
2018-04-07T04:47:53.300Z,59.05
2018-04-07T04:48:54.675Z,58.86
2018-04-07T04:49:56.054Z,58.86
2018-04-07T04:50:57.435Z,59.14
2018-04-07T04:51:58.806Z,58.76
2018-04-07T04:53:00.190Z,59.05
2018-04-07T04:54:01.578Z,59.05
2018-04-07T04:55:03.009Z,59.14
2018-04-07T04:56:04.337Z,58.86
2018-04-07T04:57:05.721Z,58.95
2018-04-07T04:58:07.108Z,59.05
2018-04-07T04:59:08.487Z,58.86
2018-04-07T05:00:09.876Z,59.05
2018-04-07T05:01:11.250Z,59.05
2018-04-07T05:02:12.632Z,59.05
2018-04-07T05:03:14.005Z,59.14
2018-04-07T05:04:15.388Z,59.24
2018-04-07T05:05:16.768Z,59.14
2018-04-07T05:06:18.159Z,59.24
2018-04-07T05:07:19.560Z,58.86
2018-04-07T05:08:20.920Z,59.14
2018-04-07T05:09:22.314Z,59.14
2018-04-07T05:10:23.689Z,59.14
2018-04-07T05:11:25.082Z,59.14
2018-04-07T05:12:26.474Z,59.05
2018-04-07T05:13:27.858Z,59.14
2018-04-07T05:14:29.303Z,58.67
2018-04-07T05:15:30.676Z,58.58
2018-04-07T05:16:32.064Z,58.76
2018-04-07T05:17:33.444Z,58.95
2018-04-07T05:18:34.827Z,58.58
2018-04-07T05:19:36.208Z,58.95
2018-04-07T05:20:37.583Z,58.48
2018-04-07T05:21:38.968Z,58.58
2018-04-07T05:22:40.344Z,58.58
2018-04-07T05:23:41.732Z,58.58
2018-04-07T05:24:43.107Z,58.76
2018-04-07T05:25:44.488Z,58.48
2018-04-07T05:26:45.878Z,58.67
2018-04-07T05:27:47.262Z,58.48
2018-04-07T05:28:48.645Z,58.48
2018-04-07T05:29:50.970Z,58.39
2018-04-07T05:30:52.360Z,58.29
2018-04-07T05:31:53.750Z,58.00
2018-04-07T05:32:55.131Z,58.00
2018-04-07T05:33:56.518Z,58.13
2018-04-07T05:34:57.895Z,57.81
2018-04-07T05:35:59.280Z,57.62
2018-04-07T05:37:00.653Z,57.53
2018-04-07T05:38:02.038Z,57.62
2018-04-07T05:39:03.420Z,57.46
2018-04-07T05:40:04.800Z,57.53
2018-04-07T05:41:06.191Z,57.09
2018-04-07T05:42:07.557Z,57.46
2018-04-07T05:43:08.942Z,57.56
2018-04-07T05:44:10.324Z,57.28
2018-04-07T05:45:11.705Z,57.28
2018-04-07T05:46:13.089Z,57.18
2018-04-07T05:47:14.454Z,57.18
2018-04-07T05:48:15.865Z,57.28
2018-04-07T05:49:17.224Z,56.61
2018-04-07T05:50:18.600Z,56.89
2018-04-07T05:51:19.990Z,56.61
2018-04-07T05:52:21.370Z,56.99
2018-04-07T05:53:22.745Z,56.61
2018-04-07T05:54:24.129Z,56.32
2018-04-07T05:55:25.522Z,56.23
2018-04-07T05:56:26.909Z,56.13
2018-04-07T05:57:28.292Z,55.85
2018-04-07T05:58:29.672Z,56.70
2018-04-07T05:59:31.056Z,56.61
2018-04-07T06:00:32.439Z,56.89
2018-04-07T06:01:33.822Z,56.07
2018-04-07T06:02:35.205Z,55.69
2018-04-07T06:03:36.591Z,55.59
2018-04-07T06:04:37.987Z,55.21
2018-04-07T06:05:39.358Z,55.21
2018-04-07T06:06:40.743Z,54.64
2018-04-07T06:07:42.125Z,54.83
2018-04-07T06:08:43.503Z,54.17
2018-04-07T06:09:44.894Z,53.97
2018-04-07T06:10:46.275Z,53.88
2018-04-07T06:11:47.674Z,54.26
2018-04-07T06:12:49.059Z,54.00
2018-04-07T06:13:50.442Z,54.00
2018-04-07T06:14:51.828Z,53.05
2018-04-07T06:15:53.221Z,52.96
2018-04-07T06:16:54.619Z,52.96
2018-04-07T06:17:55.994Z,52.20
2018-04-07T06:18:57.383Z,52.20
2018-04-07T06:19:58.769Z,52.39
2018-04-07T06:21:00.161Z,51.53
2018-04-07T06:22:01.559Z,51.08
2018-04-07T06:23:02.945Z,51.27
2018-04-07T06:24:04.332Z,50.99
2018-04-07T06:25:05.727Z,50.79
2018-04-07T06:26:07.101Z,50.42
2018-04-07T06:27:08.480Z,50.04
2018-04-07T06:28:09.865Z,49.94
2018-04-07T06:29:11.254Z,49.75
2018-04-07T06:30:12.638Z,49.58
2018-04-07T06:31:14.019Z,49.08
2018-04-07T06:32:15.400Z,49.08
2018-04-07T06:33:16.787Z,49.20
2018-04-07T06:34:18.177Z,48.92
2018-04-07T06:35:19.564Z,48.63
2018-04-07T06:36:20.956Z,47.87
2018-04-07T06:37:22.344Z,48.16
2018-04-07T06:38:23.739Z,47.97
2018-04-07T06:39:25.136Z,48.16
2018-04-07T06:40:26.524Z,47.97
2018-04-07T06:41:27.914Z,47.87
2018-04-07T06:42:29.299Z,47.39
2018-04-07T06:43:30.688Z,47.49
2018-04-07T06:44:32.072Z,46.92
2018-04-07T06:45:33.463Z,46.37
2018-04-07T06:46:34.849Z,46.28
2018-04-07T06:47:36.244Z,46.37
2018-04-07T06:48:37.627Z,45.80
2018-04-07T06:49:39.012Z,45.70
2018-04-07T06:50:40.399Z,45.61
2018-04-07T06:51:41.816Z,45.14
2018-04-07T06:52:43.180Z,44.85
2018-04-07T06:53:44.569Z,44.66
2018-04-07T06:54:45.962Z,44.59
2018-04-07T06:55:47.343Z,44.59
2018-04-07T06:56:48.743Z,44.30
2018-04-07T06:57:50.132Z,44.49
2018-04-07T06:58:51.520Z,43.73
2018-04-07T06:59:52.906Z,43.27
2018-04-07T07:00:54.299Z,43.18
2018-04-07T07:01:55.695Z,42.80
2018-04-07T07:02:57.083Z,42.80
2018-04-07T07:03:58.475Z,42.70
2018-04-07T07:04:59.864Z,42.60
2018-04-07T07:06:01.241Z,42.70
2018-04-07T07:07:02.639Z,42.32
2018-04-07T07:08:04.018Z,42.32
2018-04-07T07:09:05.405Z,42.32
2018-04-07T07:10:06.803Z,42.22
2018-04-07T07:11:08.186Z,42.32
2018-04-07T07:12:09.571Z,42.41
2018-04-07T07:13:10.963Z,42.03
2018-04-07T07:14:12.353Z,41.65
2018-04-07T07:15:13.755Z,41.75
2018-04-07T07:16:15.767Z,41.65
2018-04-07T07:17:17.151Z,42.03
2018-04-07T07:18:18.557Z,41.77
2018-04-07T07:19:19.933Z,41.29
2018-04-07T07:20:21.325Z,41.20
2018-04-07T07:21:22.718Z,40.44
2018-04-07T07:22:24.109Z,40.63
2018-04-07T07:23:25.494Z,40.44
2018-04-07T07:24:26.885Z,40.44
2018-04-07T07:25:28.276Z,40.26
2018-04-07T07:26:29.662Z,39.67
2018-04-07T07:27:31.050Z,39.31
2018-04-07T07:28:32.432Z,39.69
2018-04-07T07:29:33.865Z,39.02
2018-04-07T07:30:35.209Z,38.54
2018-04-07T07:31:36.595Z,38.18
2018-04-07T07:32:37.982Z,38.07
2018-04-07T07:33:39.868Z,38.28
2018-04-07T07:34:41.280Z,38.07
2018-04-07T07:35:42.679Z,37.88
2018-04-07T07:36:44.070Z,37.71
2018-04-07T07:37:45.463Z,37.42
2018-04-07T07:38:46.854Z,37.99
2018-04-07T07:39:48.250Z,37.61
2018-04-07T07:40:49.632Z,37.32
2018-04-07T07:41:51.027Z,36.37
2018-04-07T07:42:52.415Z,36.46
2018-04-07T07:43:53.811Z,36.96
2018-04-07T07:44:55.208Z,36.39
2018-04-07T07:45:56.607Z,36.00
2018-04-07T07:46:57.993Z,36.00
2018-04-07T07:47:59.383Z,35.82
2018-04-07T07:49:00.769Z,35.14
2018-04-07T07:50:02.160Z,34.77
2018-04-07T07:51:03.563Z,34.40
2018-04-07T07:52:04.947Z,34.40
2018-04-07T07:53:06.346Z,34.20
2018-04-07T07:54:07.733Z,34.01
2018-04-07T07:55:09.126Z,34.03
2018-04-07T07:56:10.518Z,33.17
2018-04-07T07:57:11.900Z,33.07
2018-04-07T07:58:13.292Z,32.98
2018-04-07T07:59:14.681Z,32.97
2018-04-07T08:00:16.070Z,32.97
2018-04-07T08:01:17.469Z,33.36
2018-04-07T08:02:18.858Z,33.17
2018-04-07T08:03:20.254Z,32.29
2018-04-07T08:04:21.634Z,32.20
2018-04-07T08:05:23.037Z,32.50
2018-04-07T08:06:24.421Z,33.27
2018-04-07T08:07:25.807Z,32.41
2018-04-07T08:08:27.202Z,31.93
2018-04-07T08:09:28.592Z,31.35
2018-04-07T08:10:29.978Z,31.64
2018-04-07T08:11:31.367Z,31.84
2018-04-07T08:12:32.761Z,32.21
2018-04-07T08:13:34.148Z,32.33
2018-04-07T08:14:35.543Z,31.37
2018-04-07T08:15:36.932Z,31.37
2018-04-07T08:16:38.329Z,30.51
2018-04-07T08:17:39.725Z,30.99
2018-04-07T08:18:41.136Z,30.91
2018-04-07T08:19:42.514Z,30.24
2018-04-07T08:20:43.973Z,29.97
2018-04-07T08:21:45.257Z,28.81
2018-04-07T08:22:46.658Z,28.53
2018-04-07T08:23:48.053Z,28.45
2018-04-07T08:24:49.433Z,28.35
2018-04-07T08:25:50.827Z,28.26
2018-04-07T08:26:52.218Z,28.06
2018-04-07T08:27:53.611Z,27.30
2018-04-07T08:28:54.999Z,27.03
2018-04-07T08:29:56.390Z,26.35
2018-04-07T08:30:57.791Z,26.45
2018-04-07T08:31:59.176Z,26.18
2018-04-07T08:33:00.574Z,25.40
2018-04-07T08:34:01.957Z,25.59
2018-04-07T08:35:03.348Z,26.08
2018-04-07T08:36:04.746Z,25.51
2018-04-07T08:37:06.128Z,25.31
2018-04-07T08:38:07.534Z,24.84
2018-04-07T08:39:08.929Z,24.64
2018-04-07T08:40:10.313Z,24.84
2018-04-07T08:41:11.723Z,24.93
2018-04-07T08:42:14.015Z,25.13
2018-04-07T08:43:15.410Z,24.75
2018-04-07T08:44:16.803Z,23.98
2018-04-07T08:45:18.207Z,23.88
2018-04-07T08:46:19.645Z,24.18
2018-04-07T08:47:20.983Z,23.90
2018-04-07T08:48:22.380Z,23.61
2018-04-07T08:49:23.777Z,23.42
2018-04-07T08:50:25.168Z,22.76
2018-04-07T08:51:26.563Z,22.08
2018-04-07T08:52:27.958Z,22.19
2018-04-07T08:53:29.367Z,21.61
2018-04-07T08:54:30.744Z,21.71
2018-04-07T08:55:32.140Z,21.52
2018-04-07T08:56:33.536Z,20.86
2018-04-07T08:57:34.926Z,20.77
2018-04-07T08:58:36.319Z,20.01
2018-04-07T08:59:37.717Z,19.53
2018-04-07T09:00:39.122Z,19.45
2018-04-07T09:01:40.520Z,18.41
2018-04-07T09:02:41.910Z,17.36
2018-04-07T09:03:43.296Z,16.52
2018-04-07T09:04:44.684Z,15.28
2018-04-07T09:05:46.078Z,14.41
2018-04-07T09:06:47.486Z,13.16
2018-04-07T09:07:48.882Z,12.68
2018-04-07T09:08:50.273Z,12.01
2018-04-07T09:09:51.667Z,11.43
2018-04-07T09:10:53.070Z,12.01
2018-04-07T09:11:54.458Z,11.63
2018-04-07T09:12:55.856Z,11.71
2018-04-07T09:13:57.251Z,11.92
2018-04-07T09:14:58.645Z,11.63
2018-04-07T09:16:00.046Z,10.96
2018-04-07T09:17:01.437Z,10.67
2018-04-07T09:18:02.830Z,10.87
2018-04-07T09:19:04.239Z,10.38
2018-04-07T09:20:05.629Z,10.10
2018-04-07T09:21:07.022Z,9.61
2018-04-07T09:22:08.420Z,9.62
2018-04-07T09:23:09.816Z,9.33
2018-04-07T09:24:11.220Z,9.33
2018-04-07T09:25:12.607Z,9.33
2018-04-07T09:26:14.001Z,9.52
2018-04-07T09:27:15.402Z,9.43
2018-04-07T09:28:16.800Z,8.84
2018-04-07T09:29:18.184Z,9.33
2018-04-07T09:30:19.589Z,8.75
2018-04-07T09:31:21.804Z,8.85
2018-04-07T09:32:23.205Z,8.95
2018-04-07T09:33:24.598Z,8.47
2018-04-07T09:34:26.001Z,8.28
2018-04-07T09:35:27.392Z,8.26
2018-04-07T09:36:28.786Z,9.13
2018-04-07T09:37:30.192Z,9.12
2018-04-07T09:38:31.578Z,9.42
2018-04-07T09:39:32.979Z,9.03
2018-04-07T09:40:34.377Z,8.94
2018-04-07T09:41:35.780Z,8.74
2018-04-07T09:42:37.180Z,9.13
2018-04-07T09:43:38.581Z,8.66
2018-04-07T09:44:39.983Z,8.08
2018-04-07T09:45:41.388Z,7.61
2018-04-07T09:46:42.800Z,7.23
2018-04-07T09:47:44.193Z,5.57
2018-04-07T09:48:45.599Z,4.69
2018-04-07T09:49:47.003Z,4.90
2018-04-07T09:50:48.405Z,4.70
2018-04-07T09:51:49.803Z,4.21
2018-04-07T09:52:51.218Z,4.02
2018-04-07T09:53:52.609Z,3.91
2018-04-07T09:54:54.013Z,4.30
2018-04-07T09:55:55.411Z,4.39
2018-04-07T09:56:56.825Z,5.18
2018-04-07T09:57:58.218Z,5.66
2018-04-07T09:58:59.626Z,5.37
2018-04-07T10:00:01.037Z,5.37
2018-04-07T10:01:02.431Z,5.47
2018-04-07T10:02:03.841Z,5.27
2018-04-07T10:03:05.241Z,4.98
2018-04-07T10:04:06.649Z,4.98
2018-04-07T10:05:08.058Z,5.18
2018-04-07T10:06:09.452Z,5.08
2018-04-07T10:07:10.863Z,4.98
2018-04-07T10:08:12.258Z,5.57
2018-04-07T10:09:13.664Z,5.76
2018-04-07T10:10:15.069Z,5.86
2018-04-07T10:11:16.500Z,5.38
2018-04-07T10:12:17.914Z,4.70
2018-04-07T10:13:19.318Z,4.60
2018-04-07T10:14:20.714Z,4.31
2018-04-07T10:15:22.118Z,4.21
2018-04-07T10:16:23.540Z,3.92
2018-04-07T10:17:24.949Z,4.02
2018-04-07T10:18:26.363Z,4.79
2018-04-07T10:19:27.771Z,4.30
2018-04-07T10:20:29.171Z,4.30
2018-04-07T10:21:30.584Z,5.18
2018-04-07T10:22:31.988Z,5.08
2018-04-07T10:23:33.391Z,4.89
2018-04-07T10:24:34.797Z,4.99
2018-04-07T10:25:36.207Z,4.41
2018-04-07T10:26:37.610Z,3.92
2018-04-07T10:27:39.026Z,3.53
2018-04-07T10:28:40.438Z,3.53
2018-04-07T10:29:41.854Z,2.75
2018-04-07T10:30:43.251Z,1.97
2018-04-07T10:31:44.657Z,2.36
2018-04-07T10:32:46.071Z,2.94
2018-04-07T10:33:47.481Z,2.94
2018-04-07T10:34:48.899Z,3.72
2018-04-07T10:35:50.308Z,4.11
2018-04-07T10:36:51.712Z,3.83
2018-04-07T10:37:53.130Z,3.53
2018-04-07T10:38:54.541Z,3.05
2018-04-07T10:39:55.956Z,2.75
2018-04-07T10:40:57.362Z,1.48
2018-04-07T10:41:58.784Z,1.08
2018-04-07T10:43:00.190Z,0.20
2018-04-07T10:44:02.425Z,0.29
2018-04-07T10:45:03.842Z,0.00
2018-04-07T10:46:05.250Z,0.49
2018-04-07T10:47:06.666Z,0.78
2018-04-07T10:48:08.075Z,0.88
2018-04-07T10:49:09.503Z,1.27
2018-04-07T10:50:10.906Z,1.67
2018-04-07T10:51:12.324Z,1.28
2018-04-07T10:52:13.736Z,1.07
2018-04-07T10:53:15.141Z,1.17
2018-04-07T10:54:16.558Z,1.37
2018-04-07T10:55:17.969Z,0.88
2018-04-07T10:56:19.392Z,0.88
2018-04-07T10:57:20.790Z,0.39
2018-04-07T10:58:22.197Z,0.00
2018-04-07T10:59:23.613Z,0.00
2018-04-07T11:00:25.035Z,0.10
2018-04-07T11:01:26.437Z,0.98
2018-04-07T11:02:27.851Z,1.28
2018-04-07T11:03:29.262Z,1.96
2018-04-07T11:04:30.668Z,3.14
2018-04-07T11:05:32.087Z,3.14
2018-04-07T11:06:33.495Z,3.03
2018-04-07T11:07:34.899Z,3.42
2018-04-07T11:08:36.309Z,3.81
2018-04-07T11:09:37.717Z,4.11
2018-04-07T11:10:39.126Z,4.10
2018-04-07T11:11:40.539Z,4.00
2018-04-07T11:12:41.942Z,4.08
2018-04-07T11:13:43.348Z,4.76
2018-04-07T11:14:44.752Z,5.82
2018-04-07T11:15:46.161Z,7.36
2018-04-07T11:16:47.568Z,8.23
2018-04-07T11:17:48.978Z,7.75
2018-04-07T11:18:50.391Z,8.03
2018-04-07T11:19:51.797Z,7.56
2018-04-07T11:20:53.196Z,6.59
2018-04-07T11:21:54.608Z,6.10
2018-04-07T11:22:56.005Z,6.30
2018-04-07T11:23:57.414Z,6.50
2018-04-07T11:24:58.808Z,5.73
2018-04-07T11:26:00.247Z,4.96
2018-04-07T11:27:01.653Z,4.67
2018-04-07T11:28:03.062Z,4.38
2018-04-07T11:29:05.347Z,3.99
2018-04-07T11:30:06.755Z,4.00
2018-04-07T11:31:08.149Z,4.29
2018-04-07T11:32:09.566Z,3.80
2018-04-07T11:33:10.958Z,2.83
2018-04-07T11:34:12.366Z,2.93
2018-04-07T11:35:14.651Z,3.22
2018-04-07T11:36:16.052Z,2.83
2018-04-07T11:37:17.460Z,2.44
2018-04-07T11:38:18.848Z,2.34
2018-04-07T11:39:20.270Z,2.93
2018-04-07T11:40:21.679Z,2.92
2018-04-07T11:41:23.078Z,3.52
2018-04-07T11:42:24.489Z,2.93
2018-04-07T11:43:25.895Z,2.83
2018-04-07T11:44:27.307Z,3.03
2018-04-07T11:45:28.714Z,3.52
2018-04-07T11:46:30.113Z,3.61
2018-04-07T11:47:31.523Z,3.80
2018-04-07T11:48:32.945Z,4.10
2018-04-07T11:49:34.343Z,4.10
2018-04-07T11:50:35.746Z,4.00
2018-04-07T11:51:37.150Z,3.80
2018-04-07T11:52:38.558Z,3.61
2018-04-07T11:53:39.957Z,3.42
2018-04-07T11:54:41.372Z,3.32
2018-04-07T11:55:42.785Z,3.22
2018-04-07T11:56:44.237Z,3.22
2018-04-07T11:57:45.595Z,2.93
2018-04-07T11:58:47.001Z,3.42
2018-04-07T11:59:48.415Z,2.93
2018-04-07T12:00:49.834Z,3.13
2018-04-07T12:01:51.234Z,3.32
2018-04-07T12:02:52.649Z,3.32
2018-04-07T12:03:54.050Z,3.23
2018-04-07T12:04:55.460Z,3.23
2018-04-07T12:05:56.869Z,3.13
2018-04-07T12:06:58.280Z,3.13
2018-04-07T12:07:59.686Z,2.84
2018-04-07T12:09:01.100Z,2.74
2018-04-07T12:10:02.501Z,2.15
2018-04-07T12:11:03.908Z,2.05
2018-04-07T12:12:05.321Z,2.15
2018-04-07T12:13:06.726Z,2.25
2018-04-07T12:14:08.134Z,2.15
2018-04-07T12:15:09.558Z,2.55
2018-04-07T12:16:10.964Z,2.25
2018-04-07T12:17:12.370Z,1.86
2018-04-07T12:18:13.788Z,2.45
2018-04-07T12:19:15.192Z,2.64
2018-04-07T12:20:16.608Z,2.55
2018-04-07T12:21:18.012Z,2.65
2018-04-07T12:22:19.425Z,2.55
2018-04-07T12:23:20.832Z,1.67
2018-04-07T12:24:22.233Z,1.86
2018-04-07T12:25:23.648Z,1.96
2018-04-07T12:26:25.054Z,2.25
2018-04-07T12:27:26.458Z,2.93
2018-04-07T12:28:27.875Z,2.83
2018-04-07T12:29:29.276Z,3.13
2018-04-07T12:30:30.690Z,3.61
2018-04-07T12:31:32.096Z,4.00
2018-04-07T12:32:33.503Z,3.91
2018-04-07T12:33:34.909Z,4.39
2018-04-07T12:34:36.315Z,4.19
2018-04-07T12:35:37.731Z,3.90
2018-04-07T12:36:39.144Z,4.19
2018-04-07T12:37:40.539Z,4.10
2018-04-07T12:38:41.944Z,4.97
2018-04-07T12:39:43.354Z,4.97
2018-04-07T12:40:44.777Z,4.87
2018-04-07T12:41:46.179Z,5.16
2018-04-07T12:42:47.594Z,5.16
2018-04-07T12:43:49.003Z,4.97
2018-04-07T12:44:50.412Z,5.44
2018-04-07T12:45:51.812Z,6.02
2018-04-07T12:46:53.226Z,6.70
2018-04-07T12:47:54.623Z,6.60
2018-04-07T12:48:56.032Z,6.70
2018-04-07T12:49:57.441Z,6.50
2018-04-07T12:50:58.845Z,6.60
2018-04-07T12:52:00.258Z,7.09
2018-04-07T12:53:01.680Z,7.18
2018-04-07T12:54:03.094Z,6.89
2018-04-07T12:55:04.504Z,7.08
2018-04-07T12:56:05.915Z,7.95
2018-04-07T12:57:07.314Z,8.53
2018-04-07T12:58:08.734Z,8.81
2018-04-07T12:59:10.123Z,8.32
2018-04-07T13:00:11.532Z,9.00
2018-04-07T13:01:12.953Z,9.39
2018-04-07T13:02:14.349Z,9.30
2018-04-07T13:03:15.757Z,9.21
2018-04-07T13:04:17.172Z,8.64
2018-04-07T13:05:18.575Z,8.25
2018-04-07T13:06:19.970Z,7.57
2018-04-07T13:07:21.367Z,7.96
2018-04-07T13:08:22.776Z,7.67
2018-04-07T13:09:24.172Z,8.15
2018-04-07T13:10:25.578Z,9.01
2018-04-07T13:11:26.971Z,9.69
2018-04-07T13:12:28.374Z,9.97
2018-04-07T13:13:29.781Z,10.05
2018-04-07T13:14:31.176Z,11.20
2018-04-07T13:15:32.576Z,11.68
2018-04-07T13:16:33.976Z,12.54
2018-04-07T13:17:35.376Z,12.83
2018-04-07T13:18:36.772Z,13.11